Time,TemperatureF,DewpointF,PressureIn,WindDirection,WindDirectionDegrees,WindSpeedMPH,WindSpeedGustMPH,Humidity,HourlyPrecipIn,Conditions,Clouds,dailyrainin,SolarRadiationWatts/m^2,SoftwareType,DateUTC
2013-11-01 00:03:00,51.9,51.9,29.69,WNW,285,0.0,0.0,100,0.04,,OVC031,0.00,0.00,VWS V14.01,2013-11-01 04:03:00,
2013-11-01 00:13:00,53.2,53.2,29.69,WNW,285,2.0,4.0,100,0.04,,OVC031,0.01,0.00,VWS V14.01,2013-11-01 04:13:00,
2013-11-01 00:23:00,55.4,55.4,29.68,WSW,257,4.0,6.0,100,0.04,,OVC031,0.01,0.00,VWS V14.01,2013-11-01 04:23:00,
2013-11-01 00:33:00,56.5,56.5,29.66,West,269,5.0,8.0,100,0.05,,OVC031,0.02,0.00,VWS V14.01,2013-11-01 04:33:00,
2013-11-01 00:43:00,57.0,57.0,29.66,West,269,5.0,8.0,100,0.04,,OVC031,0.02,0.00,VWS V14.01,2013-11-01 04:43:00,
2013-11-01 00:53:00,57.0,57.0,29.65,WSW,250,2.0,10.0,100,0.03,,OVC031,0.02,0.00,VWS V14.01,2013-11-01 04:53:00,
2013-11-01 01:03:00,57.3,57.3,29.63,WSW,257,3.0,10.0,100,0.02,,OVC026,0.02,0.00,VWS V14.01,2013-11-01 05:03:00,
2013-11-01 01:13:00,56.9,56.9,29.63,West,261,4.0,7.0,100,0.03,,OVC026,0.03,0.00,VWS V14.01,2013-11-01 05:13:00,
2013-11-01 01:23:00,57.0,57.0,29.63,WSW,257,3.0,7.0,100,0.02,,OVC026,0.03,0.00,VWS V14.01,2013-11-01 05:23:00,
2013-11-01 01:33:00,57.2,57.2,29.62,WSW,252,4.0,8.0,100,0.02,,OVC026,0.03,0.00,VWS V14.01,2013-11-01 05:33:00,
2013-11-01 01:43:00,56.9,56.9,29.62,West,278,2.0,6.0,100,0.01,,OVC026,0.03,0.00,VWS V14.01,2013-11-01 05:43:00,
2013-11-01 01:53:00,56.7,56.7,29.61,WSW,250,2.0,5.0,100,0.02,,OVC026,0.04,0.00,VWS V14.01,2013-11-01 05:53:00,
2013-11-01 02:03:00,56.6,56.6,29.60,West,268,2.0,6.0,100,0.02,,OVC025,0.04,0.00,VWS V14.01,2013-11-01 06:03:00,
2013-11-01 02:13:00,56.5,56.5,29.60,WSW,258,3.0,6.0,100,0.02,,OVC025,0.04,0.00,VWS V14.01,2013-11-01 06:13:00,
2013-11-01 02:23:00,56.5,56.5,29.59,WSW,249,3.0,9.0,100,0.02,,OVC025,0.05,0.00,VWS V14.01,2013-11-01 06:23:00,
2013-11-01 02:33:00,56.9,56.9,29.58,WSW,253,5.0,7.0,100,0.02,,OVC025,0.05,0.00,VWS V14.01,2013-11-01 06:33:00,
2013-11-01 02:43:00,57.0,57.0,29.58,SW,217,5.0,7.0,100,0.03,,OVC025,0.06,0.00,VWS V14.01,2013-11-01 06:43:00,
2013-11-01 02:53:00,57.0,57.0,29.57,WSW,249,0.0,5.0,100,0.03,,OVC025,0.06,0.00,VWS V14.01,2013-11-01 06:53:00,
2013-11-01 03:03:00,56.9,56.9,29.55,WSW,257,4.0,13.0,100,0.02,,OVC036,0.06,0.00,VWS V14.01,2013-11-01 07:03:00,
2013-11-01 03:13:00,57.0,57.0,29.55,West,263,5.0,14.0,100,0.03,,OVC036,0.07,0.00,VWS V14.01,2013-11-01 07:13:00,
2013-11-01 03:23:00,57.2,57.2,29.54,WSW,238,6.0,12.0,100,0.03,,OVC036,0.07,0.00,VWS V14.01,2013-11-01 07:23:00,
2013-11-01 03:33:00,57.2,57.2,29.54,WSW,240,4.0,15.0,100,0.03,,OVC036,0.08,0.00,VWS V14.01,2013-11-01 07:33:00,
2013-11-01 03:43:00,57.5,57.5,29.54,WSW,258,9.0,16.0,100,0.03,,OVC036,0.08,0.00,VWS V14.01,2013-11-01 07:43:00,
2013-11-01 03:53:00,57.3,57.3,29.53,WSW,252,5.0,15.0,100,0.03,,OVC036,0.09,0.00,VWS V14.01,2013-11-01 07:53:00,
2013-11-01 04:03:00,57.6,57.6,29.52,WSW,252,9.0,11.0,100,0.03,,OVC031,0.09,0.00,VWS V14.01,2013-11-01 08:03:00,
2013-11-01 04:13:00,57.5,57.5,29.52,West,259,10.0,14.0,100,0.03,,OVC031,0.09,0.00,VWS V14.01,2013-11-01 08:13:00,
2013-11-01 04:23:00,57.8,57.8,29.50,SW,228,3.0,11.0,100,0.02,,OVC031,0.09,0.00,VWS V14.01,2013-11-01 08:23:00,
2013-11-01 04:33:00,57.6,57.6,29.51,WSW,255,10.0,17.0,100,0.03,,OVC031,0.10,0.00,VWS V14.01,2013-11-01 08:33:00,
2013-11-01 04:43:00,58.1,58.1,29.51,WSW,252,6.0,14.0,100,0.02,,OVC031,0.10,0.00,VWS V14.01,2013-11-01 08:43:00,
2013-11-01 04:53:00,58.0,58.0,29.51,West,276,7.0,14.0,100,0.03,,OVC031,0.11,0.00,VWS V14.01,2013-11-01 08:53:00,
2013-11-01 05:03:00,58.3,58.3,29.49,WSW,250,14.0,18.0,100,0.04,,OVC025,0.13,0.00,VWS V14.01,2013-11-01 09:03:00,
2013-11-01 05:13:00,58.7,58.7,29.49,West,266,5.0,22.0,100,0.04,,OVC025,0.13,0.00,VWS V14.01,2013-11-01 09:13:00,
2013-11-01 05:23:00,58.7,58.4,29.47,WSW,257,9.0,14.0,99,0.04,,OVC025,0.13,0.00,VWS V14.01,2013-11-01 09:23:00,
2013-11-01 05:33:00,58.7,58.7,29.47,WSW,251,8.0,17.0,100,0.04,,OVC025,0.13,0.00,VWS V14.01,2013-11-01 09:33:00,
2013-11-01 05:43:00,58.7,58.7,29.47,SW,226,4.0,14.0,100,0.04,,OVC025,0.14,0.00,VWS V14.01,2013-11-01 09:43:00,
2013-11-01 05:53:00,58.9,58.6,29.47,WSW,258,4.0,11.0,99,0.04,,OVC025,0.14,0.00,VWS V14.01,2013-11-01 09:53:00,
2013-11-01 06:03:00,59.0,58.7,29.47,SW,234,4.0,14.0,99,0.03,,BKN026,0.14,0.00,VWS V14.01,2013-11-01 10:03:00,
2013-11-01 06:13:00,58.6,58.3,29.47,SW,225,2.0,14.0,99,0.01,,BKN026,0.14,0.00,VWS V14.01,2013-11-01 10:13:00,
2013-11-01 06:23:00,58.9,58.9,29.46,WSW,253,2.0,10.0,100,0.01,,BKN026,0.14,0.00,VWS V14.01,2013-11-01 10:23:00,
2013-11-01 06:33:00,58.9,58.9,29.44,SW,235,5.0,7.0,100,0.01,,BKN026,0.14,0.00,VWS V14.01,2013-11-01 10:33:00,
2013-11-01 06:43:00,59.2,59.2,29.44,WSW,250,2.0,8.0,100,0.01,,BKN026,0.14,0.00,VWS V14.01,2013-11-01 10:43:00,
2013-11-01 06:53:00,59.5,59.5,29.44,SW,235,2.0,9.0,100,0.00,,BKN026,0.14,0.00,VWS V14.01,2013-11-01 10:53:00,
2013-11-01 07:03:00,59.5,59.5,29.43,West,262,7.0,7.0,100,0.00,,,0.14,0.00,VWS V14.01,2013-11-01 11:03:00,
2013-11-01 07:13:00,59.6,59.3,29.43,West,259,6.0,9.0,99,0.01,,,0.15,0.00,VWS V14.01,2013-11-01 11:13:00,
2013-11-01 07:23:00,59.5,59.2,29.43,West,262,5.0,10.0,99,0.02,,,0.16,0.00,VWS V14.01,2013-11-01 11:23:00,
2013-11-01 07:33:00,59.8,59.8,29.42,SW,234,6.0,11.0,100,0.03,,OVC025,0.17,0.00,VWS V14.01,2013-11-01 11:33:00,
2013-11-01 07:43:00,59.8,59.8,29.42,West,271,4.0,10.0,100,0.04,,OVC025,0.18,0.00,VWS V14.01,2013-11-01 11:43:00,
2013-11-01 07:53:00,59.9,59.9,29.42,West,273,6.0,11.0,100,0.05,,OVC025,0.19,0.00,VWS V14.01,2013-11-01 11:53:00,
2013-11-01 08:03:00,59.9,59.9,29.42,WSW,252,6.0,11.0,100,0.06,,OVC035,0.20,7.00,VWS V14.01,2013-11-01 12:03:00,
2013-11-01 08:13:00,60.1,60.1,29.42,West,265,9.0,13.0,100,0.07,,OVC035,0.21,5.00,VWS V14.01,2013-11-01 12:13:00,
2013-11-01 08:23:00,60.4,60.4,29.41,West,262,6.0,12.0,100,0.07,,OVC035,0.22,9.00,VWS V14.01,2013-11-01 12:23:00,
2013-11-01 08:33:00,60.5,60.5,29.41,West,259,7.0,12.0,100,0.07,,OVC035,0.23,7.00,VWS V14.01,2013-11-01 12:33:00,
2013-11-01 08:43:00,61.0,61.0,29.41,West,270,10.0,17.0,100,0.06,,OVC035,0.23,16.00,VWS V14.01,2013-11-01 12:43:00,
2013-11-01 08:53:00,61.8,61.2,29.41,WSW,245,11.0,16.0,98,0.06,,OVC035,0.24,21.00,VWS V14.01,2013-11-01 12:53:00,
2013-11-01 09:03:00,61.8,61.2,29.40,West,260,11.0,19.0,98,0.05,,OVC035,0.24,42.00,VWS V14.01,2013-11-01 13:03:00,
2013-11-01 09:13:00,62.1,61.2,29.40,WSW,248,14.0,21.0,97,0.04,,OVC035,0.24,30.00,VWS V14.01,2013-11-01 13:13:00,
2013-11-01 09:23:00,62.4,61.2,29.39,SW,226,12.0,19.0,96,0.03,,OVC035,0.24,44.00,VWS V14.01,2013-11-01 13:23:00,
2013-11-01 09:33:00,62.4,61.2,29.39,WSW,250,10.0,16.0,96,0.02,,OVC032,0.24,18.00,VWS V14.01,2013-11-01 13:33:00,
2013-11-01 09:43:00,63.2,61.2,29.39,West,279,10.0,19.0,93,0.01,,OVC032,0.24,30.00,VWS V14.01,2013-11-01 13:43:00,
2013-11-01 09:53:00,63.5,60.8,29.39,SW,232,15.0,23.0,91,0.01,,OVC032,0.24,33.00,VWS V14.01,2013-11-01 13:53:00,
2013-11-01 10:03:00,64.2,61.5,29.36,West,276,11.0,19.0,91,0.00,,OVC032,0.24,47.00,VWS V14.01,2013-11-01 14:03:00,
2013-11-01 10:13:00,64.7,60.8,29.36,West,276,10.0,20.0,87,0.00,,OVC032,0.24,88.00,VWS V14.01,2013-11-01 14:13:00,
2013-11-01 10:23:00,65.0,61.4,29.35,SW,227,17.0,23.0,88,0.00,,OVC032,0.24,84.00,VWS V14.01,2013-11-01 14:23:00,
2013-11-01 10:33:00,66.0,61.4,29.34,WSW,250,14.0,24.0,85,0.00,,OVC032,0.24,83.00,VWS V14.01,2013-11-01 14:33:00,
2013-11-01 10:43:00,66.1,60.8,29.34,WSW,244,12.0,25.0,83,0.00,,OVC032,0.24,84.00,VWS V14.01,2013-11-01 14:43:00,
2013-11-01 10:53:00,66.3,61.0,29.32,West,267,28.0,28.0,83,0.00,,OVC032,0.24,23.00,VWS V14.01,2013-11-01 14:53:00,
2013-11-01 11:03:00,66.4,60.7,29.31,WSW,250,11.0,28.0,82,0.00,,OVC043,0.24,16.00,VWS V14.01,2013-11-01 15:03:00,
2013-11-01 11:13:00,66.3,60.7,29.31,WSW,242,7.0,24.0,82,0.00,,OVC043,0.24,12.00,VWS V14.01,2013-11-01 15:13:00,
2013-11-01 11:23:00,65.8,61.5,29.31,West,259,12.0,20.0,86,0.01,,OVC043,0.25,25.00,VWS V14.01,2013-11-01 15:23:00,
2013-11-01 11:33:00,64.2,62.4,29.32,WSW,252,9.0,22.0,94,0.05,,OVC043,0.29,18.00,VWS V14.01,2013-11-01 15:33:00,
2013-11-01 11:43:00,63.5,62.6,29.32,West,259,13.0,18.0,97,0.12,,OVC043,0.36,12.00,VWS V14.01,2013-11-01 15:43:00,
2013-11-01 11:53:00,63.2,61.2,29.37,WSW,250,24.0,34.0,93,0.23,,OVC043,0.47,58.00,VWS V14.01,2013-11-01 15:53:00,
2013-11-01 12:03:00,63.1,60.4,29.38,WSW,251,19.0,33.0,91,0.24,,OVC034,0.48,23.00,VWS V14.01,2013-11-01 16:03:00,
2013-11-01 12:13:00,62.6,59.3,29.38,WSW,256,29.0,29.0,89,0.25,,OVC034,0.49,105.00,VWS V14.01,2013-11-01 16:13:00,
2013-11-01 12:23:00,62.1,58.5,29.38,WSW,243,14.0,29.0,88,0.25,,OVC034,0.49,70.00,VWS V14.01,2013-11-01 16:23:00,
2013-11-01 12:33:00,61.3,58.3,29.35,WSW,238,6.0,23.0,90,0.25,,OVC034,0.50,58.00,VWS V14.01,2013-11-01 16:33:00,
2013-11-01 12:43:00,61.0,58.0,29.35,WSW,245,13.0,18.0,90,0.21,,OVC034,0.50,88.00,VWS V14.01,2013-11-01 16:43:00,
2013-11-01 12:53:00,61.0,58.0,29.34,SW,236,13.0,15.0,90,0.14,,OVC034,0.50,32.00,VWS V14.01,2013-11-01 16:53:00,
2013-11-01 13:03:00,60.1,58.7,29.34,WSW,257,11.0,18.0,95,0.03,,BKN095,0.50,18.00,VWS V14.01,2013-11-01 17:03:00,
2013-11-01 13:13:00,59.8,57.8,29.34,SW,221,4.0,12.0,93,0.03,,BKN095,0.51,23.00,VWS V14.01,2013-11-01 17:13:00,
2013-11-01 13:23:00,59.2,58.6,29.34,WSW,238,2.0,13.0,98,0.02,,BKN095,0.51,33.00,VWS V14.01,2013-11-01 17:23:00,
2013-11-01 13:33:00,59.6,58.5,29.34,WSW,238,6.0,12.0,96,0.02,,BKN095,0.51,109.00,VWS V14.01,2013-11-01 17:33:00,
2013-11-01 13:43:00,60.7,59.0,29.34,West,264,13.0,15.0,94,0.01,,BKN095,0.51,97.00,VWS V14.01,2013-11-01 17:43:00,
2013-11-01 13:53:00,60.9,58.3,29.33,WSW,240,5.0,16.0,91,0.01,,BKN095,0.51,269.00,VWS V14.01,2013-11-01 17:53:00,
2013-11-01 14:03:00,61.8,58.5,29.32,West,259,11.0,16.0,89,0.01,,FEW045,0.51,186.00,VWS V14.01,2013-11-01 18:03:00,
2013-11-01 14:13:00,61.8,59.5,29.32,WSW,252,11.0,16.0,92,0.01,,FEW045,0.51,144.00,VWS V14.01,2013-11-01 18:13:00,
2013-11-01 14:23:00,62.4,58.2,29.32,WSW,251,9.0,19.0,86,0.00,,FEW045,0.51,221.00,VWS V14.01,2013-11-01 18:23:00,
2013-11-01 14:33:00,63.2,58.0,29.32,SW,233,5.0,17.0,83,0.00,,FEW045,0.51,353.00,VWS V14.01,2013-11-01 18:33:00,
2013-11-01 14:43:00,63.1,58.2,29.32,West,271,15.0,19.0,84,0.00,,FEW045,0.51,51.00,VWS V14.01,2013-11-01 18:43:00,
2013-11-01 14:53:00,63.1,56.1,29.32,SW,228,13.0,19.0,78,0.00,,FEW045,0.51,81.00,VWS V14.01,2013-11-01 18:53:00,
2013-11-01 15:03:00,64.2,56.1,29.31,WSW,246,11.0,20.0,75,0.00,,BKN049,0.51,95.00,VWS V14.01,2013-11-01 19:03:00,
2013-11-01 15:13:00,63.4,57.8,29.31,WSW,238,9.0,22.0,82,0.00,,BKN049,0.51,206.00,VWS V14.01,2013-11-01 19:13:00,
2013-11-01 15:23:00,63.1,57.2,29.32,SW,221,5.0,18.0,81,0.00,,BKN049,0.51,49.00,VWS V14.01,2013-11-01 19:23:00,
2013-11-01 15:33:00,63.2,56.9,29.32,WSW,239,11.0,21.0,80,0.00,,BKN049,0.51,81.00,VWS V14.01,2013-11-01 19:33:00,
2013-11-01 15:43:00,63.5,55.4,29.32,WSW,238,9.0,20.0,75,0.00,,BKN049,0.51,83.00,VWS V14.01,2013-11-01 19:43:00,
2013-11-01 15:53:00,63.7,56.0,29.32,West,266,14.0,20.0,76,0.00,,BKN049,0.51,195.00,VWS V14.01,2013-11-01 19:53:00,
2013-11-01 16:03:00,63.2,55.5,29.33,SW,226,13.0,18.0,76,0.00,,BKN060,0.51,46.00,VWS V14.01,2013-11-01 20:03:00,
2013-11-01 16:13:00,63.4,54.6,29.33,SW,230,7.0,18.0,73,0.00,,BKN060,0.51,54.00,VWS V14.01,2013-11-01 20:13:00,
2013-11-01 16:23:00,63.4,55.3,29.33,West,267,12.0,20.0,75,0.00,,BKN060,0.51,25.00,VWS V14.01,2013-11-01 20:23:00,
2013-11-01 16:33:00,62.6,53.8,29.34,SW,227,4.0,17.0,73,0.00,,BKN060,0.51,25.00,VWS V14.01,2013-11-01 20:33:00,
2013-11-01 16:43:00,62.6,53.8,29.34,SW,236,6.0,12.0,73,0.00,,BKN060,0.51,32.00,VWS V14.01,2013-11-01 20:43:00,
2013-11-01 16:53:00,62.1,54.1,29.34,WSW,239,11.0,19.0,75,0.00,,BKN060,0.51,16.00,VWS V14.01,2013-11-01 20:53:00,
2013-11-01 17:03:00,62.1,53.3,29.34,West,259,6.0,12.0,73,0.00,,BKN065,0.51,16.00,VWS V14.01,2013-11-01 21:03:00,
2013-11-01 17:13:00,61.2,55.3,29.34,WNW,282,8.0,15.0,81,0.00,,BKN065,0.51,11.00,VWS V14.01,2013-11-01 21:13:00,
2013-11-01 17:23:00,60.5,54.0,29.35,West,262,6.0,13.0,79,0.00,,BKN065,0.51,7.00,VWS V14.01,2013-11-01 21:23:00,
2013-11-01 17:33:00,60.1,53.6,29.36,West,265,6.0,13.0,79,0.00,,BKN065,0.51,0.00,VWS V14.01,2013-11-01 21:33:00,
2013-11-01 17:43:00,59.9,53.4,29.36,West,271,8.0,13.0,79,0.00,,BKN065,0.51,0.00,VWS V14.01,2013-11-01 21:43:00,
2013-11-01 17:53:00,59.5,54.0,29.37,SW,236,6.0,13.0,82,0.00,,BKN065,0.51,0.00,VWS V14.01,2013-11-01 21:53:00,
2013-11-01 18:03:00,59.0,52.8,29.37,West,265,9.0,12.0,80,0.00,,CLR,0.51,0.00,VWS V14.01,2013-11-01 22:03:00,
2013-11-01 18:13:00,60.1,52.5,29.37,West,268,5.0,12.0,76,0.00,,CLR,0.51,0.00,VWS V14.01,2013-11-01 22:13:00,
2013-11-01 18:23:00,58.6,52.8,29.38,WSW,239,4.0,9.0,81,0.00,,CLR,0.51,0.00,VWS V14.01,2013-11-01 22:23:00,
2013-11-01 18:33:00,58.6,52.8,29.39,WSW,248,3.0,10.0,81,0.00,,CLR,0.51,0.00,VWS V14.01,2013-11-01 22:33:00,
2013-11-01 18:43:00,57.5,53.0,29.39,SW,233,2.0,9.0,85,0.00,,CLR,0.51,0.00,VWS V14.01,2013-11-01 22:43:00,
2013-11-01 18:53:00,56.9,52.4,29.39,WSW,251,2.0,10.0,85,0.00,,CLR,0.51,0.00,VWS V14.01,2013-11-01 22:53:00,
2013-11-01 19:03:00,56.5,52.7,29.40,WSW,240,0.0,4.0,87,0.00,,CLR,0.51,0.00,VWS V14.01,2013-11-01 23:03:00,
2013-11-01 19:13:00,55.6,53.0,29.40,WSW,240,0.0,1.0,91,0.00,,CLR,0.51,0.00,VWS V14.01,2013-11-01 23:13:00,
2013-11-01 19:23:00,55.3,53.0,29.42,WSW,240,0.0,0.0,92,0.00,,CLR,0.51,0.00,VWS V14.01,2013-11-01 23:23:00,
2013-11-01 19:33:00,55.1,53.1,29.43,WSW,240,0.0,0.0,93,0.00,,CLR,0.51,0.00,VWS V14.01,2013-11-01 23:33:00,
2013-11-01 19:43:00,54.8,53.1,29.43,WSW,240,0.0,0.0,94,0.00,,CLR,0.51,0.00,VWS V14.01,2013-11-01 23:43:00,
2013-11-01 19:53:00,54.2,53.1,29.44,WSW,240,0.0,0.0,96,0.00,,CLR,0.51,0.00,VWS V14.01,2013-11-01 23:53:00,
2013-11-01 20:03:00,54.2,52.8,29.45,WSW,240,0.0,0.0,95,0.00,,CLR,0.51,0.00,VWS V14.01,2013-11-02 00:03:00,
2013-11-01 20:13:00,54.8,52.2,29.45,WSW,239,3.0,7.0,91,0.00,,CLR,0.51,0.00,VWS V14.01,2013-11-02 00:13:00,
2013-11-01 20:23:00,54.8,52.2,29.46,SSE,165,2.0,5.0,91,0.00,,CLR,0.51,0.00,VWS V14.01,2013-11-02 00:23:00,
2013-11-01 20:33:00,55.6,51.8,29.47,SSE,166,2.0,3.0,87,0.00,,CLR,0.51,0.00,VWS V14.01,2013-11-02 00:33:00,
2013-11-01 20:43:00,55.0,51.8,29.47,SSE,166,0.0,2.0,89,0.00,,CLR,0.51,0.00,VWS V14.01,2013-11-02 00:43:00,
2013-11-01 20:53:00,54.8,51.3,29.48,West,265,0.0,6.0,88,0.00,,CLR,0.51,0.00,VWS V14.01,2013-11-02 00:53:00,
2013-11-01 21:03:00,56.5,49.7,29.49,SW,228,3.0,9.0,78,0.00,,CLR,0.51,0.00,VWS V14.01,2013-11-02 01:03:00,
2013-11-01 21:13:00,55.9,49.2,29.49,WSW,240,1.0,10.0,78,0.00,,CLR,0.51,0.00,VWS V14.01,2013-11-02 01:13:00,
2013-11-01 21:23:00,55.6,48.2,29.50,SW,232,2.0,14.0,76,0.00,,CLR,0.51,0.00,VWS V14.01,2013-11-02 01:23:00,
2013-11-01 21:33:00,56.0,45.6,29.51,SW,230,2.0,6.0,68,0.00,,CLR,0.51,0.00,VWS V14.01,2013-11-02 01:33:00,
2013-11-01 21:43:00,54.8,47.0,29.51,WSW,255,0.0,5.0,75,0.00,,CLR,0.51,0.00,VWS V14.01,2013-11-02 01:43:00,
2013-11-01 21:53:00,54.1,47.7,29.52,WSW,255,2.0,4.0,79,0.00,,CLR,0.51,0.00,VWS V14.01,2013-11-02 01:53:00,
2013-11-01 22:03:00,54.2,46.8,29.53,West,265,5.0,7.0,76,0.00,,CLR,0.51,0.00,VWS V14.01,2013-11-02 02:03:00,
2013-11-01 22:13:00,53.3,46.3,29.53,WSW,253,11.0,14.0,77,0.00,,CLR,0.51,0.00,VWS V14.01,2013-11-02 02:13:00,
2013-11-01 22:23:00,53.6,45.9,29.54,West,265,5.0,11.0,75,0.00,,CLR,0.51,0.00,VWS V14.01,2013-11-02 02:23:00,
2013-11-01 22:33:00,52.9,47.9,29.54,West,259,12.0,12.0,83,0.00,,CLR,0.51,0.00,VWS V14.01,2013-11-02 02:33:00,
2013-11-01 22:43:00,55.6,44.4,29.54,West,271,15.0,16.0,66,0.00,,CLR,0.51,0.00,VWS V14.01,2013-11-02 02:43:00,
2013-11-01 22:53:00,55.9,43.1,29.54,West,274,10.0,17.0,62,0.00,,CLR,0.51,0.00,VWS V14.01,2013-11-02 02:53:00,
2013-11-01 23:03:00,56.6,42.9,29.54,West,271,12.0,14.0,60,0.00,,CLR,0.51,0.00,VWS V14.01,2013-11-02 03:03:00,
2013-11-01 23:13:00,56.5,42.8,29.54,NW,304,7.0,15.0,60,0.00,,CLR,0.51,0.00,VWS V14.01,2013-11-02 03:13:00,
2013-11-01 23:23:00,56.0,42.8,29.55,WNW,294,12.0,12.0,61,0.00,,CLR,0.51,0.00,VWS V14.01,2013-11-02 03:23:00,
2013-11-01 23:33:00,55.1,43.6,29.54,WNW,285,6.0,15.0,65,0.00,,CLR,0.51,0.00,VWS V14.01,2013-11-02 03:33:00,
2013-11-01 23:43:00,53.6,42.5,29.54,West,266,6.0,12.0,66,0.00,,CLR,0.51,0.00,VWS V14.01,2013-11-02 03:43:00,
2013-11-01 23:53:00,55.4,42.2,29.55,SW,227,7.0,15.0,61,0.00,,CLR,0.51,0.00,VWS V14.01,2013-11-02 03:53:00,